Colchester, VT

10:57 PM EST on February 09, 2016 (GMT -0500)
Department of Public Works | | Change Station
CLOSE
Current Station
Personal Weather Station
Location: Burlington, VT
Elevation: 302 ft
Nearby Weather Stations

Elev 302 ft 44.48 °N, 73.17 °W | Updated 8 minutes ago

Light Snow
Light Snow
23.8 °F
Feels Like 24 °F
N
2.0
Wind Variable Wind from SSW
Gusts 3.0 mph

Today
High -- | Low -- °F
--% Chance of Precip.
Yesterday
High -- | Low -- °F
Precip. -- in
Pressure 29.56 in
Visibility 7.0 miles
Clouds Overcast 4300 ft
Windchill 24 °F
Dew Point 22 °F
Humidity 92%
Rainfall 0.05 in
Snow Depth Not available.
7:01 AM 5:12 PM
Waxing Crescent, 3% visible
METAR KBTV 100354Z 17005KT 7SM -SN OVC043 M04/M06 A2955 RMK AO2 SLP010 P0000 T10391061
Pressure 29.56 in
Visibility 7.0 miles
Clouds Overcast 4300 ft
Windchill 24 °F
Dew Point 22 °F
Humidity 92%
Rainfall 0.05 in
Snow Depth Not available.
7:01 AM 5:12 PM
Waxing Crescent, 3% visible
METAR KBTV 100354Z 17005KT 7SM -SN OVC043 M04/M06 A2955 RMK AO2 SLP010 P0000 T10391061

10-Day Weather Forecast

Almanac

Astronomy

Feb. 09, 2016 Rise Set
Actual Time
Civil Twilight
Nautical Twilight
Astronomical Twilight
Moon
Length of Visible Light
Length of Day
Tomorrow will be .
, % of the Moon is Illuminated

Today's Extremes

State Highs State Lows

Community

WunderPhotos

Upload Photos

1,891,792 photos uploaded!

WunderBlog® & News

Nearby

Air Quality

  Air Quality AQ Index Pollutant
Not available.

Snow Depth

Station Depth Elevation

Earthquake Activity

City Distance Mag. Time & Date
Minimum magnitude displayed is 2.5.

Coastal Water Temperatures

Place Temperature

Stations

Nearby Weather Stations

Station Location Temp. Windchill Dew Point Humidity Wind Precip. Elev Updated Type
                   

Watches & Warnings

There are currently no watches in effect.